createdAt,value
2018-06-30T00:00:21.501Z,"    0"
2018-06-30T00:05:17.255Z,"    0"
2018-06-30T00:10:13.313Z,"    0"
2018-06-30T00:15:09.215Z,"    0"
2018-06-30T00:20:05.186Z,"    0"
2018-06-30T00:25:00.942Z,"    0"
2018-06-30T00:29:57.126Z,"    0"
2018-06-30T00:34:52.998Z,"    0"
2018-06-30T00:39:48.701Z,"    0"
2018-06-30T00:44:45.713Z,"    0"
2018-06-30T00:49:41.481Z,"    0"
2018-06-30T00:54:37.114Z,"    0"
2018-06-30T00:59:33.969Z,"    0"
2018-06-30T01:04:29.417Z,"    0"
2018-06-30T01:09:25.367Z,"    0"
2018-06-30T01:14:21.706Z,"    0"
2018-06-30T01:19:17.267Z,"    0"
2018-06-30T01:24:13.117Z,"    0"
2018-06-30T01:29:08.904Z,"    0"
2018-06-30T01:34:05.567Z,"    0"
2018-06-30T01:39:02.066Z,"    0"
2018-06-30T01:43:58.515Z,"    0"
2018-06-30T01:48:54.480Z,"    0"
2018-06-30T01:53:50.225Z,"    0"
2018-06-30T01:58:46.147Z,"    0"
2018-06-30T02:03:42.741Z,"    0"
2018-06-30T02:08:38.864Z,"    0"
2018-06-30T02:13:36.319Z,"    0"
2018-06-30T02:18:32.700Z,"    0"
2018-06-30T02:23:29.554Z,"    0"
2018-06-30T02:28:24.989Z,"    0"
2018-06-30T02:33:20.905Z,"    0"
2018-06-30T02:38:16.680Z,"    0"
2018-06-30T02:43:13.245Z,"    0"
2018-06-30T02:48:09.525Z,"    0"
2018-06-30T02:53:05.611Z,"    0"
2018-06-30T02:58:01.326Z,"    0"
2018-06-30T03:02:57.313Z,"    0"
2018-06-30T03:07:53.256Z,"    0"
2018-06-30T03:12:49.275Z,"    5"
2018-06-30T03:17:45.212Z,"    5"
2018-06-30T03:22:41.713Z,"   10"
2018-06-30T03:27:37.365Z,"   10"
2018-06-30T03:32:34.313Z,"   15"
2018-06-30T03:37:29.861Z,"   20"
2018-06-30T03:42:26.513Z,"   25"
2018-06-30T03:47:22.940Z,"   30"
2018-06-30T03:52:18.821Z,"   35"
2018-06-30T03:57:15.873Z,"   40"
2018-06-30T04:02:12.646Z,"   50"
2018-06-30T04:07:08.586Z,"   65"
2018-06-30T04:12:04.690Z,"   70"
2018-06-30T04:17:02.183Z,"   80"
2018-06-30T04:21:57.789Z,"   85"
2018-06-30T04:26:53.754Z,"   85"
2018-06-30T04:31:49.776Z,"   95"
2018-06-30T04:36:45.680Z,"  175"
2018-06-30T04:41:42.438Z,"  200"
2018-06-30T04:46:39.729Z,"  210"
2018-06-30T04:51:36.506Z,"  230"
2018-06-30T04:56:33.231Z,"  250"
2018-06-30T05:01:30.050Z,"  320"
2018-06-30T05:06:27.888Z,"  385"
2018-06-30T05:11:24.932Z,"  430"
2018-06-30T05:16:21.105Z,"  440"
2018-06-30T05:21:17.333Z,"  470"
2018-06-30T05:26:13.671Z,"  485"
2018-06-30T05:31:11.355Z,"  535"
2018-06-30T05:36:08.025Z,"  550"
2018-06-30T05:41:04.683Z,"  545"
2018-06-30T05:46:01.419Z,"  600"
2018-06-30T05:50:58.040Z,"  415"
2018-06-30T05:55:53.210Z,"  625"
2018-06-30T06:00:50.610Z,"  140"
2018-06-30T06:05:43.948Z,"  115"
2018-06-30T06:10:37.853Z,"  105"
2018-06-30T06:15:32.911Z,"  105"
2018-06-30T06:20:28.353Z,"  115"
2018-06-30T06:25:24.830Z,"  115"
2018-06-30T06:30:20.248Z,"  170"
2018-06-30T06:35:17.272Z,"  105"
2018-06-30T06:40:13.747Z,"  105"
2018-06-30T06:45:10.390Z,"  110"
2018-06-30T06:50:05.793Z,"  110"
2018-06-30T06:55:02.939Z,"  110"
2018-06-30T06:59:58.449Z,"  110"
2018-06-30T07:04:54.440Z,"  110"
2018-06-30T07:09:51.551Z,"  120"
2018-06-30T07:14:47.243Z,"  115"
2018-06-30T07:19:42.974Z,"  110"
2018-06-30T07:24:40.023Z,"  120"
2018-06-30T07:29:35.992Z,"  115"
2018-06-30T07:34:31.883Z,"  135"
2018-06-30T07:39:29.161Z,"  185"
2018-06-30T07:44:25.321Z,"  130"
2018-06-30T07:49:21.616Z,"  420"
2018-06-30T07:54:23.379Z," 1425"
2018-06-30T07:59:23.958Z," 1400"
2018-06-30T08:04:23.818Z," 1455"
2018-06-30T08:09:21.225Z," 1435"
2018-06-30T08:14:19.104Z," 1460"
2018-06-30T08:19:17.673Z," 1565"
2018-06-30T08:24:13.760Z," 1490"
2018-06-30T08:29:08.665Z," 1305"
2018-06-30T08:34:05.866Z," 1370"
2018-06-30T08:39:02.596Z," 1530"
2018-06-30T08:43:58.510Z," 1630"
2018-06-30T08:48:55.015Z," 1690"
2018-06-30T08:53:51.743Z," 1455"
2018-06-30T08:58:48.808Z," 1530"
2018-06-30T09:03:46.483Z," 1680"
2018-06-30T09:13:42.985Z," 1615"
2018-06-30T09:18:39.302Z," 1590"
2018-06-30T09:23:35.554Z," 1640"
2018-06-30T09:28:33.225Z," 1650"
2018-06-30T09:33:28.966Z," 1830"
2018-06-30T09:38:24.828Z," 1610"
2018-06-30T09:43:21.174Z," 1705"
2018-06-30T09:48:16.195Z," 1950"
2018-06-30T09:53:11.725Z," 2010"
2018-06-30T09:58:08.253Z," 2035"
2018-06-30T10:03:04.323Z," 1925"
2018-06-30T10:08:02.163Z," 1865"
2018-06-30T10:12:59.219Z," 1885"
2018-06-30T10:17:55.976Z," 1960"
2018-06-30T10:22:52.471Z," 1965"
2018-06-30T10:27:49.095Z," 1770"
2018-06-30T10:32:46.400Z," 2045"
2018-06-30T10:37:43.327Z," 2030"
2018-06-30T10:42:39.601Z," 2005"
2018-06-30T10:47:35.880Z," 2245"
2018-06-30T10:52:33.478Z," 2015"
2018-06-30T10:57:29.046Z," 2095"
2018-06-30T11:02:26.144Z," 2060"
2018-06-30T11:07:22.768Z," 2070"
2018-06-30T11:12:19.913Z," 2295"
2018-06-30T11:17:16.646Z," 2195"
2018-06-30T11:22:13.962Z," 2210"
2018-06-30T11:27:10.053Z," 2245"
2018-06-30T11:32:06.118Z," 2230"
2018-06-30T11:37:02.771Z," 2005"
2018-06-30T11:41:59.113Z," 1430"
2018-06-30T11:46:54.755Z," 1520"
2018-06-30T11:51:49.849Z," 1950"
2018-06-30T11:56:46.424Z," 2195"
2018-06-30T12:01:43.797Z," 1990"
2018-06-30T12:06:41.735Z," 1625"
2018-06-30T12:11:37.020Z," 1990"
2018-06-30T12:16:33.432Z," 2120"
2018-06-30T12:21:31.260Z," 1790"
2018-06-30T12:26:26.222Z," 2120"
2018-06-30T12:31:21.898Z," 2165"
2018-06-30T12:36:17.797Z," 2000"
2018-06-30T12:41:13.872Z," 1985"
2018-06-30T12:46:11.230Z," 2160"
2018-06-30T12:51:08.119Z," 1625"
2018-06-30T12:56:04.106Z," 1735"
2018-06-30T13:01:00.669Z," 1855"
2018-06-30T13:05:57.593Z," 2095"
2018-06-30T13:10:53.034Z," 1855"
2018-06-30T13:15:48.267Z," 2015"
2018-06-30T13:20:43.501Z," 2040"
2018-06-30T13:25:40.308Z," 1985"
2018-06-30T13:30:37.369Z," 2065"
2018-06-30T13:35:33.775Z," 1925"
2018-06-30T13:40:29.131Z," 1845"
2018-06-30T13:45:26.275Z," 1600"
2018-06-30T13:50:22.480Z," 1595"
2018-06-30T13:55:17.893Z," 1995"
2018-06-30T14:00:13.841Z," 1860"
2018-06-30T14:05:09.245Z,"  135"
2018-06-30T14:10:03.668Z,"  100"
2018-06-30T14:14:58.403Z,"  100"
2018-06-30T14:19:54.580Z,"   95"
2018-06-30T14:24:49.760Z,"   95"
2018-06-30T14:29:45.107Z,"   95"
2018-06-30T14:34:41.026Z,"   95"
2018-06-30T14:39:36.896Z,"   90"
2018-06-30T14:44:32.735Z,"   90"
2018-06-30T14:49:28.681Z,"   90"
2018-06-30T14:54:24.267Z,"   90"
2018-06-30T14:59:20.118Z,"   90"
2018-06-30T15:04:16.319Z,"   90"
2018-06-30T15:09:12.287Z,"   90"
2018-06-30T15:14:08.522Z,"   85"
2018-06-30T15:19:04.472Z,"   85"
2018-06-30T15:24:00.679Z,"   85"
2018-06-30T15:28:57.639Z,"   85"
2018-06-30T15:33:53.319Z,"   85"
2018-06-30T15:38:50.186Z,"   85"
2018-06-30T15:43:45.693Z,"   85"
2018-06-30T15:48:41.560Z,"   85"
2018-06-30T15:53:37.633Z,"   80"
2018-06-30T15:58:33.815Z,"   80"
2018-06-30T16:03:29.744Z,"   80"
2018-06-30T16:08:25.825Z,"   80"
2018-06-30T16:13:22.881Z,"   80"
2018-06-30T16:18:18.937Z,"   80"
2018-06-30T16:23:14.891Z,"   80"
2018-06-30T16:28:11.782Z,"   80"
2018-06-30T16:33:07.294Z,"   75"
2018-06-30T16:38:03.662Z,"   75"
2018-06-30T16:42:59.688Z,"   75"
2018-06-30T16:47:55.617Z,"   75"
2018-06-30T16:52:51.437Z,"   75"
2018-06-30T16:57:47.512Z,"   75"
2018-06-30T17:02:43.489Z,"   75"
2018-06-30T17:07:39.243Z,"   70"
2018-06-30T17:12:35.280Z,"   70"
2018-06-30T17:17:31.221Z,"   70"
2018-06-30T17:22:27.002Z,"   70"
2018-06-30T17:27:22.920Z,"   70"
2018-06-30T17:32:20.210Z,"   65"
2018-06-30T17:37:16.659Z,"   65"
2018-06-30T17:42:13.260Z,"   65"
2018-06-30T17:47:09.170Z,"   65"
2018-06-30T17:52:05.104Z,"   60"
2018-06-30T17:57:00.972Z,"   60"
2018-06-30T18:01:56.789Z,"   60"
2018-06-30T18:06:52.889Z,"   55"
2018-06-30T18:11:49.864Z,"   55"
2018-06-30T18:16:45.267Z,"   55"
2018-06-30T18:21:41.576Z,"   50"
2018-06-30T18:26:37.356Z,"   50"
2018-06-30T18:31:33.815Z,"   45"
2018-06-30T18:36:30.080Z,"   45"
2018-06-30T18:41:25.704Z,"   40"
2018-06-30T18:46:21.555Z,"   40"
2018-06-30T18:51:17.630Z,"   40"
2018-06-30T18:56:13.636Z,"   35"
2018-06-30T19:01:09.649Z,"   35"
2018-06-30T19:06:05.449Z,"   30"
2018-06-30T19:11:01.260Z,"   25"
2018-06-30T19:15:57.068Z,"   25"
2018-06-30T19:20:53.941Z,"   20"
2018-06-30T19:25:49.331Z,"   15"
2018-06-30T19:30:45.119Z,"   15"
2018-06-30T19:35:41.444Z,"   10"
2018-06-30T19:40:37.450Z,"   10"
2018-06-30T19:45:33.255Z,"    5"
2018-06-30T19:50:29.044Z,"    5"
2018-06-30T19:55:24.779Z,"    0"
2018-06-30T20:00:20.852Z,"    0"
2018-06-30T20:05:16.743Z,"    0"
2018-06-30T20:10:12.702Z,"    0"
2018-06-30T20:15:08.481Z,"    0"
2018-06-30T20:20:03.980Z,"    0"
2018-06-30T20:24:59.640Z,"    0"
2018-06-30T20:29:56.540Z,"    0"
2018-06-30T20:34:52.287Z,"    0"
2018-06-30T20:39:48.077Z,"    0"
2018-06-30T20:44:44.040Z,"    0"
2018-06-30T20:49:40.722Z,"    0"
2018-06-30T20:54:36.133Z,"    0"
2018-06-30T20:59:32.887Z,"    0"
2018-06-30T21:04:29.401Z,"    0"
2018-06-30T21:09:25.502Z,"    0"
2018-06-30T21:14:21.272Z,"    0"
2018-06-30T21:19:17.122Z,"    0"
2018-06-30T21:24:13.042Z,"    0"
2018-06-30T21:29:08.876Z,"    0"
2018-06-30T21:34:05.580Z,"    0"
2018-06-30T21:39:01.022Z,"    0"
2018-06-30T21:43:56.664Z,"    0"
2018-06-30T21:48:53.371Z,"    0"
2018-06-30T21:53:50.170Z,"    0"
2018-06-30T21:58:45.825Z,"    0"
2018-06-30T22:03:42.635Z,"    0"
2018-06-30T22:08:39.779Z,"    0"
2018-06-30T22:13:36.681Z,"    0"
2018-06-30T22:18:32.310Z,"    0"
2018-06-30T22:23:28.892Z,"    0"
2018-06-30T22:28:24.588Z,"    0"
2018-06-30T22:33:20.658Z,"    0"
2018-06-30T22:38:17.281Z,"    0"
2018-06-30T22:43:13.577Z,"    0"
2018-06-30T22:48:09.841Z,"    0"
2018-06-30T22:53:05.648Z,"    0"
2018-06-30T22:58:01.252Z,"    0"
2018-06-30T23:02:59.290Z,"    0"
2018-06-30T23:07:54.546Z,"    0"
2018-06-30T23:12:50.413Z,"    0"
2018-06-30T23:17:46.011Z,"    0"
2018-06-30T23:22:43.800Z,"    0"
2018-06-30T23:27:39.987Z,"    0"
2018-06-30T23:32:36.517Z,"    0"
2018-06-30T23:37:33.142Z,"    0"
2018-06-30T23:42:28.213Z,"    0"
2018-06-30T23:47:23.627Z,"    0"
2018-06-30T23:52:19.549Z,"    0"
2018-06-30T23:57:17.288Z,"    0"
